sensor_id;sensor_type;location;lat;lon;timestamp;pressure;altitude;pressure_sealevel;temperature;humidity
10060;BME280;5069;49.306;8.636;2023-01-30T00:00:06;101332.41;;;0.07;100.00
10060;BME280;5069;49.306;8.636;2023-01-30T00:03:07;101342.94;;;0.13;100.00
10060;BME280;5069;49.306;8.636;2023-01-30T00:06:09;101346.50;;;0.18;100.00
10060;BME280;5069;49.306;8.636;2023-01-30T00:09:14;101356.09;;;0.20;100.00
10060;BME280;5069;49.306;8.636;2023-01-30T00:12:15;101362.16;;;0.21;100.00
10060;BME280;5069;49.306;8.636;2023-01-30T00:15:17;101368.22;;;0.21;100.00
10060;BME280;5069;49.306;8.636;2023-01-30T00:18:18;101376.16;;;0.27;100.00
10060;BME280;5069;49.306;8.636;2023-01-30T00:21:20;101382.13;;;0.25;100.00
10060;BME280;5069;49.306;8.636;2023-01-30T00:24:21;101379.53;;;0.25;100.00
10060;BME280;5069;49.306;8.636;2023-01-30T00:27:22;101376.06;;;0.24;100.00
10060;BME280;5069;49.306;8.636;2023-01-30T00:30:24;101363.97;;;0.25;100.00
10060;BME280;5069;49.306;8.636;2023-01-30T00:33:26;101359.88;;;0.34;100.00
10060;BME280;5069;49.306;8.636;2023-01-30T00:36:28;101342.72;;;0.39;100.00
10060;BME280;5069;49.306;8.636;2023-01-30T00:39:29;101345.66;;;0.55;100.00
10060;BME280;5069;49.306;8.636;2023-01-30T00:42:31;101336.94;;;0.51;100.00
10060;BME280;5069;49.306;8.636;2023-01-30T00:45:53;101319.75;;;0.56;100.00
10060;BME280;5069;49.306;8.636;2023-01-30T00:49:14;101321.59;;;0.62;100.00
10060;BME280;5069;49.306;8.636;2023-01-30T00:52:15;101327.63;;;0.61;100.00
10060;BME280;5069;49.306;8.636;2023-01-30T00:55:17;101320.94;;;0.72;100.00
10060;BME280;5069;49.306;8.636;2023-01-30T00:58:19;101308.72;;;0.66;100.00
10060;BME280;5069;49.306;8.636;2023-01-30T01:01:21;101320.00;;;0.68;100.00
10060;BME280;5069;49.306;8.636;2023-01-30T01:04:23;101303.56;;;0.68;100.00
10060;BME280;5069;49.306;8.636;2023-01-30T01:07:24;101306.31;;;0.77;100.00
10060;BME280;5069;49.306;8.636;2023-01-30T01:10:27;101288.13;;;0.75;100.00
10060;BME280;5069;49.306;8.636;2023-01-30T01:13:28;101290.03;;;0.84;100.00
10060;BME280;5069;49.306;8.636;2023-01-30T01:16:31;101277.19;;;0.92;100.00
10060;BME280;5069;49.306;8.636;2023-01-30T01:19:33;101271.09;;;0.88;100.00
10060;BME280;5069;49.306;8.636;2023-01-30T01:22:35;101276.41;;;0.94;100.00
10060;BME280;5069;49.306;8.636;2023-01-30T01:25:36;101273.00;;;0.98;100.00
10060;BME280;5069;49.306;8.636;2023-01-30T01:28:40;101254.78;;;0.95;100.00
10060;BME280;5069;49.306;8.636;2023-01-30T01:31:44;101244.47;;;1.00;99.58
10060;BME280;5069;49.306;8.636;2023-01-30T01:34:46;101231.47;;;0.98;99.77
10060;BME280;5069;49.306;8.636;2023-01-30T01:37:52;101245.47;;;1.06;98.96
10060;BME280;5069;49.306;8.636;2023-01-30T01:40:53;101255.97;;;1.12;98.30
10060;BME280;5069;49.306;8.636;2023-01-30T01:44:10;101225.69;;;1.13;97.43
10060;BME280;5069;49.306;8.636;2023-01-30T01:47:12;101224.00;;;1.16;97.12
10060;BME280;5069;49.306;8.636;2023-01-30T01:50:18;101242.03;;;1.09;97.53
10060;BME280;5069;49.306;8.636;2023-01-30T01:53:26;101240.31;;;1.09;97.55
10060;BME280;5069;49.306;8.636;2023-01-30T01:56:30;101239.53;;;1.12;97.47
10060;BME280;5069;49.306;8.636;2023-01-30T01:59:36;101212.00;;;1.23;96.87
10060;BME280;5069;49.306;8.636;2023-01-30T02:02:41;101204.25;;;1.24;96.31
10060;BME280;5069;49.306;8.636;2023-01-30T02:05:47;101203.38;;;1.24;96.57
10060;BME280;5069;49.306;8.636;2023-01-30T02:08:54;101214.84;;;1.37;95.86
10060;BME280;5069;49.306;8.636;2023-01-30T02:12:00;101201.75;;;1.31;95.84
10060;BME280;5069;49.306;8.636;2023-01-30T02:15:06;101215.59;;;1.31;95.93
10060;BME280;5069;49.306;8.636;2023-01-30T02:18:08;101194.84;;;1.33;95.80
10060;BME280;5069;49.306;8.636;2023-01-30T02:38:23;101155.75;;;1.23;93.53
10060;BME280;5069;49.306;8.636;2023-01-30T02:44:54;101158.25;;;1.17;93.97
10060;BME280;5069;49.306;8.636;2023-01-30T02:48:02;101159.09;;;1.16;94.25
10060;BME280;5069;49.306;8.636;2023-01-30T02:51:15;101153.78;;;1.10;94.10
10060;BME280;5069;49.306;8.636;2023-01-30T02:54:18;101136.31;;;1.00;95.04
10060;BME280;5069;49.306;8.636;2023-01-30T02:57:22;101130.22;;;0.98;95.96
10060;BME280;5069;49.306;8.636;2023-01-30T03:11:01;101189.00;;;0.95;97.27
10060;BME280;5069;49.306;8.636;2023-01-30T03:17:25;101182.00;;;0.89;97.87
10060;BME280;5069;49.306;8.636;2023-01-30T03:20:28;101189.88;;;0.95;97.42
10060;BME280;5069;49.306;8.636;2023-01-30T03:23:30;101182.94;;;0.94;98.11
10060;BME280;5069;49.306;8.636;2023-01-30T03:26:34;101181.25;;;0.96;97.38
10060;BME280;5069;49.306;8.636;2023-01-30T03:29:38;101194.13;;;0.90;98.54
10060;BME280;5069;49.306;8.636;2023-01-30T03:32:40;101189.88;;;0.95;98.58
10060;BME280;5069;49.306;8.636;2023-01-30T03:35:41;101189.69;;;0.86;98.88
10060;BME280;5069;49.306;8.636;2023-01-30T03:38:46;101189.03;;;0.96;98.86
10060;BME280;5069;49.306;8.636;2023-01-30T03:41:48;101187.19;;;0.89;99.05
10060;BME280;5069;49.306;8.636;2023-01-30T03:44:51;101188.91;;;0.89;98.74
10060;BME280;5069;49.306;8.636;2023-01-30T03:47:52;101189.81;;;0.92;99.27
10060;BME280;5069;49.306;8.636;2023-01-30T03:50:54;101188.09;;;0.91;98.53
10060;BME280;5069;49.306;8.636;2023-01-30T03:53:55;101183.81;;;0.95;98.78
10060;BME280;5069;49.306;8.636;2023-01-30T03:56:57;101190.72;;;0.94;98.69
10060;BME280;5069;49.306;8.636;2023-01-30T03:59:59;101182.97;;;0.97;98.83
10060;BME280;5069;49.306;8.636;2023-01-30T04:03:00;101195.13;;;0.98;98.54
10060;BME280;5069;49.306;8.636;2023-01-30T04:06:02;101183.91;;;0.99;98.19
10060;BME280;5069;49.306;8.636;2023-01-30T04:09:04;101186.56;;;1.02;98.14
10060;BME280;5069;49.306;8.636;2023-01-30T04:12:12;101184.81;;;1.01;98.24
10060;BME280;5069;49.306;8.636;2023-01-30T04:15:22;101195.13;;;0.98;99.06
10060;BME280;5069;49.306;8.636;2023-01-30T04:18:53;101196.97;;;1.05;98.70
10060;BME280;5069;49.306;8.636;2023-01-30T04:21:57;101194.38;;;1.05;98.73
10060;BME280;5069;49.306;8.636;2023-01-30T04:24:59;101180.63;;;1.11;99.16
10060;BME280;5069;49.306;8.636;2023-01-30T04:28:01;101171.16;;;1.14;98.49
10060;BME280;5069;49.306;8.636;2023-01-30T04:31:08;101165.19;;;1.20;97.56
10060;BME280;5069;49.306;8.636;2023-01-30T04:34:38;101157.50;;;1.24;96.70
10060;BME280;5069;49.306;8.636;2023-01-30T04:37:40;101147.13;;;1.24;96.45
10060;BME280;5069;49.306;8.636;2023-01-30T04:40:49;101140.09;;;1.20;97.17
10060;BME280;5069;49.306;8.636;2023-01-30T04:43:50;101134.81;;;1.14;97.84
10060;BME280;5069;49.306;8.636;2023-01-30T04:46:58;101129.66;;;1.16;99.05
10060;BME280;5069;49.306;8.636;2023-01-30T04:50:00;101115.69;;;1.09;99.06
10060;BME280;5069;49.306;8.636;2023-01-30T04:53:01;101111.47;;;1.16;98.82
10060;BME280;5069;49.306;8.636;2023-01-30T04:56:03;101107.88;;;1.06;99.43
10060;BME280;5069;49.306;8.636;2023-01-30T04:59:05;101100.81;;;0.99;99.34
10060;BME280;5069;49.306;8.636;2023-01-30T05:02:11;101098.25;;;1.01;99.68
10060;BME280;5069;49.306;8.636;2023-01-30T05:05:13;101100.00;;;1.03;100.00
10060;BME280;5069;49.306;8.636;2023-01-30T05:08:15;101110.50;;;1.08;100.00
10060;BME280;5069;49.306;8.636;2023-01-30T05:11:18;101108.72;;;1.05;100.00
10060;BME280;5069;49.306;8.636;2023-01-30T05:14:19;101108.69;;;1.04;100.00
10060;BME280;5069;49.306;8.636;2023-01-30T05:17:21;101102.75;;;1.11;100.00
10060;BME280;5069;49.306;8.636;2023-01-30T05:20:23;101097.59;;;1.12;100.00
10060;BME280;5069;49.306;8.636;2023-01-30T05:23:24;101098.47;;;1.13;100.00
10060;BME280;5069;49.306;8.636;2023-01-30T05:26:26;101084.66;;;1.17;100.00
10060;BME280;5069;49.306;8.636;2023-01-30T05:29:28;101082.03;;;1.15;100.00
10060;BME280;5069;49.306;8.636;2023-01-30T05:32:29;101064.69;;;1.13;100.00
10060;BME280;5069;49.306;8.636;2023-01-30T05:35:31;101088.13;;;1.17;100.00
10060;BME280;5069;49.306;8.636;2023-01-30T05:38:32;101091.63;;;1.21;100.00
10060;BME280;5069;49.306;8.636;2023-01-30T05:41:34;101091.63;;;1.21;100.00
10060;BME280;5069;49.306;8.636;2023-01-30T05:44:35;101082.09;;;1.20;100.00
10060;BME280;5069;49.306;8.636;2023-01-30T05:47:37;101086.47;;;1.22;100.00
10060;BME280;5069;49.306;8.636;2023-01-30T05:50:38;101083.03;;;1.23;100.00
10060;BME280;5069;49.306;8.636;2023-01-30T05:53:39;101093.38;;;1.20;100.00
10060;BME280;5069;49.306;8.636;2023-01-30T05:56:41;101098.53;;;1.17;100.00
10060;BME280;5069;49.306;8.636;2023-01-30T05:59:42;101100.28;;;1.18;100.00
10060;BME280;5069;49.306;8.636;2023-01-30T06:02:44;101100.38;;;1.24;100.00
10060;BME280;5069;49.306;8.636;2023-01-30T06:05:45;101098.63;;;1.23;100.00
10060;BME280;5069;49.306;8.636;2023-01-30T06:08:47;101099.47;;;1.22;100.00
10060;BME280;5069;49.306;8.636;2023-01-30T06:11:52;101102.97;;;1.24;100.00
10060;BME280;5069;49.306;8.636;2023-01-30T06:14:55;101089.03;;;1.19;100.00
10060;BME280;5069;49.306;8.636;2023-01-30T06:17:56;101096.91;;;1.25;100.00
10060;BME280;5069;49.306;8.636;2023-01-30T06:20:58;101104.63;;;1.21;100.00
10060;BME280;5069;49.306;8.636;2023-01-30T06:23:59;101090.00;;;1.24;100.00
10060;BME280;5069;49.306;8.636;2023-01-30T06:27:02;101080.41;;;1.22;100.00
10060;BME280;5069;49.306;8.636;2023-01-30T06:30:04;101080.38;;;1.19;100.00
10060;BME280;5069;49.306;8.636;2023-01-30T06:33:06;101087.38;;;1.24;100.00
10060;BME280;5069;49.306;8.636;2023-01-30T06:36:08;101080.34;;;1.17;100.00
10060;BME280;5069;49.306;8.636;2023-01-30T06:39:10;101080.44;;;1.23;100.00
10060;BME280;5069;49.306;8.636;2023-01-30T06:42:11;101076.06;;;1.19;100.00
10060;BME280;5069;49.306;8.636;2023-01-30T06:45:14;101080.44;;;1.23;100.00
10060;BME280;5069;49.306;8.636;2023-01-30T06:48:17;101096.03;;;1.23;100.00
10060;BME280;5069;49.306;8.636;2023-01-30T06:51:18;101105.66;;;1.31;100.00
10060;BME280;5069;49.306;8.636;2023-01-30T06:54:20;101116.88;;;1.28;100.00
10060;BME280;5069;49.306;8.636;2023-01-30T06:57:21;101121.25;;;1.31;100.00
10060;BME280;5069;49.306;8.636;2023-01-30T07:00:23;101136.94;;;1.37;100.00
10060;BME280;5069;49.306;8.636;2023-01-30T07:03:24;101127.44;;;1.40;100.00
10060;BME280;5069;49.306;8.636;2023-01-30T07:06:27;101102.22;;;1.33;100.00
10060;BME280;5069;49.306;8.636;2023-01-30T07:09:28;101107.44;;;1.35;100.00
10060;BME280;5069;49.306;8.636;2023-01-30T07:12:30;101097.06;;;1.35;100.00
10060;BME280;5069;49.306;8.636;2023-01-30T07:15:32;101066.75;;;1.35;100.00
10060;BME280;5069;49.306;8.636;2023-01-30T07:18:33;101064.13;;;1.34;100.00
10060;BME280;5069;49.306;8.636;2023-01-30T07:21:35;101059.00;;;1.37;100.00
10060;BME280;5069;49.306;8.636;2023-01-30T07:24:36;101034.75;;;1.38;100.00
10060;BME280;5069;49.306;8.636;2023-01-30T07:27:38;101047.81;;;1.42;100.00
10060;BME280;5069;49.306;8.636;2023-01-30T07:30:41;101053.00;;;1.41;100.00
10060;BME280;5069;49.306;8.636;2023-01-30T07:33:42;101022.63;;;1.37;100.00
10060;BME280;5069;49.306;8.636;2023-01-30T07:36:44;101021.84;;;1.42;100.00
10060;BME280;5069;49.306;8.636;2023-01-30T07:39:45;101011.41;;;1.39;100.00
10060;BME280;5069;49.306;8.636;2023-01-30T07:46:04;101042.59;;;1.41;100.00
10060;BME280;5069;49.306;8.636;2023-01-30T07:49:06;101049.56;;;1.45;100.00
10060;BME280;5069;49.306;8.636;2023-01-30T07:52:09;101071.13;;;1.38;100.00
10060;BME280;5069;49.306;8.636;2023-01-30T07:55:10;101069.38;;;1.37;100.00
10060;BME280;5069;49.306;8.636;2023-01-30T07:58:13;101027.84;;;1.40;100.00
10060;BME280;5069;49.306;8.636;2023-01-30T08:01:16;101024.41;;;1.41;100.00
10060;BME280;5069;49.306;8.636;2023-01-30T08:04:18;101028.78;;;1.45;100.00
10060;BME280;5069;49.306;8.636;2023-01-30T08:07:19;101015.78;;;1.45;100.00
10060;BME280;5069;49.306;8.636;2023-01-30T08:10:21;100994.97;;;1.40;100.00
10060;BME280;5069;49.306;8.636;2023-01-30T08:13:22;101019.22;;;1.41;100.00
10060;BME280;5069;49.306;8.636;2023-01-30T08:16:24;101032.25;;;1.42;100.00
10060;BME280;5069;49.306;8.636;2023-01-30T08:19:25;101035.63;;;1.38;100.00
10060;BME280;5069;49.306;8.636;2023-01-30T08:22:28;101024.44;;;1.44;100.00
10060;BME280;5069;49.306;8.636;2023-01-30T08:25:29;101034.88;;;1.48;100.00
10060;BME280;5069;49.306;8.636;2023-01-30T08:28:31;101019.31;;;1.50;100.00
10060;BME280;5069;49.306;8.636;2023-01-30T08:31:32;101035.72;;;1.44;100.00
10060;BME280;5069;49.306;8.636;2023-01-30T08:34:34;101034.75;;;1.38;100.00
10060;BME280;5069;49.306;8.636;2023-01-30T08:37:38;101040.88;;;1.41;100.00
10060;BME280;5069;49.306;8.636;2023-01-30T08:40:40;101019.22;;;1.41;100.00
10060;BME280;5069;49.306;8.636;2023-01-30T08:43:42;101015.75;;;1.40;100.00
10060;BME280;5069;49.306;8.636;2023-01-30T08:46:43;101021.03;;;1.49;100.00
10060;BME280;5069;49.306;8.636;2023-01-30T08:49:44;101016.66;;;1.44;100.00
10060;BME280;5069;49.306;8.636;2023-01-30T08:52:46;101014.94;;;1.46;100.00
10060;BME280;5069;49.306;8.636;2023-01-30T08:55:51;101003.72;;;1.50;100.00
10060;BME280;5069;49.306;8.636;2023-01-30T08:58:53;101016.78;;;1.54;100.00
10060;BME280;5069;49.306;8.636;2023-01-30T09:01:54;101007.31;;;1.58;100.00
10060;BME280;5069;49.306;8.636;2023-01-30T09:04:55;101015.13;;;1.61;100.00
10060;BME280;5069;49.306;8.636;2023-01-30T09:07:57;101010.72;;;1.54;100.00
10060;BME280;5069;49.306;8.636;2023-01-30T09:10:59;101018.59;;;1.60;100.00
10060;BME280;5069;49.306;8.636;2023-01-30T09:14:01;101021.19;;;1.60;100.00
10060;BME280;5069;49.306;8.636;2023-01-30T09:17:02;101018.63;;;1.61;100.00
10060;BME280;5069;49.306;8.636;2023-01-30T09:20:06;101030.78;;;1.64;100.00
10060;BME280;5069;49.306;8.636;2023-01-30T09:23:07;101008.31;;;1.69;100.00
10060;BME280;5069;49.306;8.636;2023-01-30T09:26:09;100997.03;;;1.67;100.00
10060;BME280;5069;49.306;8.636;2023-01-30T09:29:11;101004.91;;;1.73;100.00
10060;BME280;5069;49.306;8.636;2023-01-30T09:32:12;100990.25;;;1.80;100.00
10060;BME280;5069;49.306;8.636;2023-01-30T09:35:14;100989.44;;;1.82;100.00
10060;BME280;5069;49.306;8.636;2023-01-30T09:38:16;100974.69;;;1.84;100.00
10060;BME280;5069;49.306;8.636;2023-01-30T09:41:46;100967.88;;;1.92;100.00
10060;BME280;5069;49.306;8.636;2023-01-30T09:48:35;100978.34;;;1.98;100.00
10060;BME280;5069;49.306;8.636;2023-01-30T09:55:17;100997.53;;;2.10;100.00
10060;BME280;5069;49.306;8.636;2023-01-30T09:58:21;100993.22;;;2.13;100.00
10060;BME280;5069;49.306;8.636;2023-01-30T10:01:39;100975.09;;;2.24;100.00
10060;BME280;5069;49.306;8.636;2023-01-30T10:04:45;100973.47;;;2.32;100.00
10060;BME280;5069;49.306;8.636;2023-01-30T10:11:36;100980.41;;;2.36;100.00
10060;BME280;5069;49.306;8.636;2023-01-30T10:15:05;100989.09;;;2.39;100.00
10060;BME280;5069;49.306;8.636;2023-01-30T10:21:51;100968.38;;;2.44;100.00
10060;BME280;5069;49.306;8.636;2023-01-30T10:31:33;100958.97;;;2.61;100.00
10060;BME280;5069;49.306;8.636;2023-01-30T10:34:39;100971.97;;;2.61;100.00
10060;BME280;5069;49.306;8.636;2023-01-30T10:37:52;100965.00;;;2.59;100.00
10060;BME280;5069;49.306;8.636;2023-01-30T10:44:20;100962.38;;;2.57;100.00
10060;BME280;5069;49.306;8.636;2023-01-30T10:47:31;100974.63;;;2.69;100.00
10060;BME280;5069;49.306;8.636;2023-01-30T10:50:57;100969.44;;;2.70;100.00
10060;BME280;5069;49.306;8.636;2023-01-30T10:57:31;100973.75;;;2.68;100.00
10060;BME280;5069;49.306;8.636;2023-01-30T11:00:47;100977.25;;;2.70;100.00
10060;BME280;5069;49.306;8.636;2023-01-30T11:04:01;100972.03;;;2.70;100.00
10060;BME280;5069;49.306;8.636;2023-01-30T11:07:02;100978.22;;;2.86;100.00
10060;BME280;5069;49.306;8.636;2023-01-30T11:10:14;100972.13;;;2.85;100.00
10060;BME280;5069;49.306;8.636;2023-01-30T11:13:19;100979.13;;;2.89;100.00
10060;BME280;5069;49.306;8.636;2023-01-30T11:16:21;100977.28;;;2.79;100.00
10060;BME280;5069;49.306;8.636;2023-01-30T11:19:32;100991.28;;;2.94;100.00
10060;BME280;5069;49.306;8.636;2023-01-30T11:22:35;100973.03;;;2.89;100.00
10060;BME280;5069;49.306;8.636;2023-01-30T11:25:56;100980.78;;;2.81;100.00
10060;BME280;5069;49.306;8.636;2023-01-30T11:32:27;100962.50;;;2.72;100.00
10060;BME280;5069;49.306;8.636;2023-01-30T11:35:29;100968.63;;;2.77;100.00
10060;BME280;5069;49.306;8.636;2023-01-30T11:38:33;100973.84;;;2.80;100.00
10060;BME280;5069;49.306;8.636;2023-01-30T11:41:35;100963.41;;;2.77;100.00
10060;BME280;5069;49.306;8.636;2023-01-30T11:44:39;100967.78;;;2.78;100.00
10060;BME280;5069;49.306;8.636;2023-01-30T11:47:49;100952.13;;;2.77;100.00
10060;BME280;5069;49.306;8.636;2023-01-30T11:51:02;100953.84;;;2.79;100.00
10060;BME280;5069;49.306;8.636;2023-01-30T11:54:07;100968.72;;;2.92;100.00
10060;BME280;5069;49.306;8.636;2023-01-30T11:57:14;100961.72;;;2.87;100.00
10060;BME280;5069;49.306;8.636;2023-01-30T12:00:18;100952.19;;;2.87;100.00
10060;BME280;5069;49.306;8.636;2023-01-30T12:03:22;100953.97;;;2.90;100.00
10060;BME280;5069;49.306;8.636;2023-01-30T12:06:29;100967.84;;;2.89;100.00
10060;BME280;5069;49.306;8.636;2023-01-30T12:09:34;100948.75;;;2.90;100.00
10060;BME280;5069;49.306;8.636;2023-01-30T12:12:42;100956.53;;;2.88;100.00
10060;BME280;5069;49.306;8.636;2023-01-30T12:15:47;100948.75;;;2.91;100.00
10060;BME280;5069;49.306;8.636;2023-01-30T12:22:10;100934.00;;;2.97;100.00
10060;BME280;5069;49.306;8.636;2023-01-30T12:25:30;100920.13;;;2.98;100.00
10060;BME280;5069;49.306;8.636;2023-01-30T12:28:51;100921.94;;;3.06;100.00
10060;BME280;5069;49.306;8.636;2023-01-30T12:35:15;100918.44;;;3.09;100.00
10060;BME280;5069;49.306;8.636;2023-01-30T12:45:18;100938.50;;;3.23;100.00
10060;BME280;5069;49.306;8.636;2023-01-30T12:54:56;100931.59;;;3.31;100.00
10060;BME280;5069;49.306;8.636;2023-01-30T13:04:55;100927.31;;;3.41;100.00
10060;BME280;5069;49.306;8.636;2023-01-30T13:08:13;100922.13;;;3.47;100.00
10060;BME280;5069;49.306;8.636;2023-01-30T13:14:47;100929.06;;;3.54;100.00
10060;BME280;5069;49.306;8.636;2023-01-30T13:18:01;100934.31;;;3.60;100.00
10060;BME280;5069;49.306;8.636;2023-01-30T13:25:22;100944.75;;;3.66;100.00
10060;BME280;5069;49.306;8.636;2023-01-30T13:28:31;100951.72;;;3.70;100.00
10060;BME280;5069;49.306;8.636;2023-01-30T13:31:36;100944.78;;;3.77;100.00
10060;BME280;5069;49.306;8.636;2023-01-30T13:34:43;100948.28;;;3.84;100.00
10060;BME280;5069;49.306;8.636;2023-01-30T13:37:47;100943.09;;;3.93;100.00
10060;BME280;5069;49.306;8.636;2023-01-30T13:40:51;100951.78;;;3.93;100.00
10060;BME280;5069;49.306;8.636;2023-01-30T13:43:54;100947.44;;;3.91;100.00
10060;BME280;5069;49.306;8.636;2023-01-30T13:46:56;100959.63;;;3.96;100.00
10060;BME280;5069;49.306;8.636;2023-01-30T13:53:45;100960.50;;;4.00;100.00
10060;BME280;5069;49.306;8.636;2023-01-30T13:57:10;100953.53;;;4.05;100.00
10060;BME280;5069;49.306;8.636;2023-01-30T14:00:26;100957.03;;;4.13;100.00
10060;BME280;5069;49.306;8.636;2023-01-30T14:03:31;100959.63;;;4.11;100.00
10060;BME280;5069;49.306;8.636;2023-01-30T14:06:35;100952.72;;;4.21;100.00
10060;BME280;5069;49.306;8.636;2023-01-30T14:13:13;100957.94;;;4.32;100.00
10060;BME280;5069;49.306;8.636;2023-01-30T14:16:16;100957.94;;;4.50;100.00
10060;BME280;5069;49.306;8.636;2023-01-30T14:19:38;100950.09;;;4.45;100.00
10060;BME280;5069;49.306;8.636;2023-01-30T14:22:50;100968.38;;;4.68;100.00
10060;BME280;5069;49.306;8.636;2023-01-30T14:25:53;100974.47;;;4.63;100.00
10060;BME280;5069;49.306;8.636;2023-01-30T14:28:58;100981.44;;;4.67;100.00
10060;BME280;5069;49.306;8.636;2023-01-30T14:31:59;100984.94;;;4.72;100.00
10060;BME280;5069;49.306;8.636;2023-01-30T14:35:14;100984.94;;;4.72;100.00
10060;BME280;5069;49.306;8.636;2023-01-30T14:38:18;100991.88;;;4.82;100.00
10060;BME280;5069;49.306;8.636;2023-01-30T14:41:26;100988.38;;;4.80;100.00
10060;BME280;5069;49.306;8.636;2023-01-30T14:45:13;100990.13;;;4.85;100.00
10060;BME280;5069;49.306;8.636;2023-01-30T14:48:37;100988.38;;;4.74;100.00
10060;BME280;5069;49.306;8.636;2023-01-30T14:51:45;100981.41;;;4.79;100.00
10060;BME280;5069;49.306;8.636;2023-01-30T14:54:49;100976.19;;;4.73;100.00
10060;BME280;5069;49.306;8.636;2023-01-30T14:57:59;100963.16;;;4.57;100.00
10060;BME280;5069;49.306;8.636;2023-01-30T15:01:01;100974.47;;;4.60;100.00
10060;BME280;5069;49.306;8.636;2023-01-30T15:04:03;100980.56;;;4.58;100.00
10060;BME280;5069;49.306;8.636;2023-01-30T15:13:59;100972.75;;;4.58;100.00
10060;BME280;5069;49.306;8.636;2023-01-30T15:17:18;100977.09;;;4.66;100.00
10060;BME280;5069;49.306;8.636;2023-01-30T15:28:14;101004.94;;;4.47;100.00
10060;BME280;5069;49.306;8.636;2023-01-30T15:31:21;101004.94;;;4.42;100.00
10060;BME280;5069;49.306;8.636;2023-01-30T15:34:27;101023.19;;;4.45;100.00
10060;BME280;5069;49.306;8.636;2023-01-30T15:37:40;101028.41;;;4.30;100.00
10060;BME280;5069;49.306;8.636;2023-01-30T15:40:41;101031.88;;;4.31;100.00
10060;BME280;5069;49.306;8.636;2023-01-30T15:50:28;101033.56;;;4.12;100.00
10060;BME280;5069;49.306;8.636;2023-01-30T15:53:35;101038.78;;;4.07;100.00
10060;BME280;5069;49.306;8.636;2023-01-30T15:56:38;101038.78;;;4.03;100.00
10060;BME280;5069;49.306;8.636;2023-01-30T15:59:40;101057.03;;;4.01;100.00
10060;BME280;5069;49.306;8.636;2023-01-30T16:02:42;101058.75;;;3.98;100.00
10060;BME280;5069;49.306;8.636;2023-01-30T16:05:52;101066.53;;;3.89;100.00
10060;BME280;5069;49.306;8.636;2023-01-30T16:09:01;101079.59;;;3.92;100.00
10060;BME280;5069;49.306;8.636;2023-01-30T16:12:04;101086.53;;;3.85;100.00
10060;BME280;5069;49.306;8.636;2023-01-30T16:15:12;101098.69;;;3.89;100.00
10060;BME280;5069;49.306;8.636;2023-01-30T16:18:51;101096.13;;;3.97;100.00
10060;BME280;5069;49.306;8.636;2023-01-30T16:21:59;101090.84;;;3.88;100.00
10060;BME280;5069;49.306;8.636;2023-01-30T16:25:02;101103.06;;;3.95;100.00
10060;BME280;5069;49.306;8.636;2023-01-30T16:28:04;101101.31;;;3.91;100.00
10060;BME280;5069;49.306;8.636;2023-01-30T16:31:07;101116.13;;;3.96;100.00
10060;BME280;5069;49.306;8.636;2023-01-30T16:37:29;101136.91;;;3.83;100.00
10060;BME280;5069;49.306;8.636;2023-01-30T16:40:43;101137.81;;;3.85;100.00
10060;BME280;5069;49.306;8.636;2023-01-30T16:43:45;101146.47;;;3.81;100.00
10060;BME280;5069;49.306;8.636;2023-01-30T16:49:50;101156.84;;;3.68;100.00
10060;BME280;5069;49.306;8.636;2023-01-30T16:52:54;101156.78;;;3.62;100.00
10060;BME280;5069;49.306;8.636;2023-01-30T16:55:58;101168.94;;;3.60;100.00
10060;BME280;5069;49.306;8.636;2023-01-30T16:59:00;101173.28;;;3.58;100.00
10060;BME280;5069;49.306;8.636;2023-01-30T17:02:04;101175.84;;;3.55;100.00
10060;BME280;5069;49.306;8.636;2023-01-30T17:05:18;101180.22;;;3.58;100.00
10060;BME280;5069;49.306;8.636;2023-01-30T17:11:37;101193.25;;;3.59;100.00
10060;BME280;5069;49.306;8.636;2023-01-30T17:14:38;101176.72;;;3.54;100.00
10060;BME280;5069;49.306;8.636;2023-01-30T17:17:40;101185.44;;;3.58;100.00
10060;BME280;5069;49.306;8.636;2023-01-30T17:20:42;101186.31;;;3.57;100.00
10060;BME280;5069;49.306;8.636;2023-01-30T17:26:58;101207.13;;;3.55;100.00
10060;BME280;5069;49.306;8.636;2023-01-30T17:30:00;101207.13;;;3.52;100.00
10060;BME280;5069;49.306;8.636;2023-01-30T17:33:01;101219.28;;;3.53;100.00
10060;BME280;5069;49.306;8.636;2023-01-30T17:36:05;101221.88;;;3.53;100.00
10060;BME280;5069;49.306;8.636;2023-01-30T17:39:13;101234.91;;;3.53;100.00
10060;BME280;5069;49.306;8.636;2023-01-30T17:42:17;101243.63;;;3.55;100.00
10060;BME280;5069;49.306;8.636;2023-01-30T17:45:21;101234.97;;;3.56;100.00
10060;BME280;5069;49.306;8.636;2023-01-30T17:48:22;101244.50;;;3.56;100.00
10060;BME280;5069;49.306;8.636;2023-01-30T17:51:23;101245.38;;;3.56;100.00
10060;BME280;5069;49.306;8.636;2023-01-30T17:54:25;101255.88;;;3.62;100.00
10060;BME280;5069;49.306;8.636;2023-01-30T17:57:27;101237.59;;;3.61;100.00
10060;BME280;5069;49.306;8.636;2023-01-30T18:00:28;101247.19;;;3.66;100.00
10060;BME280;5069;49.306;8.636;2023-01-30T18:03:30;101244.56;;;3.65;100.00
10060;BME280;5069;49.306;8.636;2023-01-30T18:06:32;101252.47;;;3.72;100.00
10060;BME280;5069;49.306;8.636;2023-01-30T18:09:34;101261.22;;;3.79;100.00
10060;BME280;5069;49.306;8.636;2023-01-30T18:12:35;101259.44;;;3.77;100.00
10060;BME280;5069;49.306;8.636;2023-01-30T18:15:37;101260.34;;;3.79;100.00
10060;BME280;5069;49.306;8.636;2023-01-30T18:18:38;101252.50;;;3.76;100.00
10060;BME280;5069;49.306;8.636;2023-01-30T18:21:40;101254.19;;;3.72;100.00
10060;BME280;5069;49.306;8.636;2023-01-30T18:24:45;101269.00;;;3.73;100.00
10060;BME280;5069;49.306;8.636;2023-01-30T18:27:46;101275.97;;;3.77;100.00
10060;BME280;5069;49.306;8.636;2023-01-30T18:30:48;101273.44;;;3.85;100.00
10060;BME280;5069;49.306;8.636;2023-01-30T18:33:50;101276.91;;;3.85;100.00
10060;BME280;5069;49.306;8.636;2023-01-30T18:36:52;101281.19;;;3.79;100.00
10060;BME280;5069;49.306;8.636;2023-01-30T18:39:53;101283.81;;;3.79;100.00
10060;BME280;5069;49.306;8.636;2023-01-30T18:42:55;101281.22;;;3.82;100.00
10060;BME280;5069;49.306;8.636;2023-01-30T18:46:01;101289.91;;;3.82;100.00